sensor_id;sensor_type;location;lat;lon;timestamp;pressure;altitude;pressure_sealevel;temperature;humidity
11672;BME280;5892;43.412;24.612;2024-03-23T00:55:06;100236.94;;;4.00;67.27
11672;BME280;5892;43.412;24.612;2024-03-23T00:57:33;100237.56;;;3.87;68.44
11672;BME280;5892;43.412;24.612;2024-03-23T01:00:00;100241.97;;;3.85;67.96
11672;BME280;5892;43.412;24.612;2024-03-23T01:02:26;100240.59;;;3.95;68.21
11672;BME280;5892;43.412;24.612;2024-03-23T01:04:53;100232.78;;;3.97;67.71
11672;BME280;5892;43.412;24.612;2024-03-23T01:07:20;100231.06;;;3.97;66.67
11672;BME280;5892;43.412;24.612;2024-03-23T01:09:45;100232.63;;;4.00;66.45
11672;BME280;5892;43.412;24.612;2024-03-23T01:12:10;100236.81;;;3.85;67.42
11672;BME280;5892;43.412;24.612;2024-03-23T01:14:36;100232.28;;;3.73;68.11
11672;BME280;5892;43.412;24.612;2024-03-23T01:17:05;100235.00;;;3.70;68.91
11672;BME280;5892;43.412;24.612;2024-03-23T01:19:32;100238.25;;;3.73;67.75
11672;BME280;5892;43.412;24.612;2024-03-23T01:21:59;100245.28;;;3.70;67.26
11672;BME280;5892;43.412;24.612;2024-03-23T01:24:24;100230.53;;;3.73;67.04
11672;BME280;5892;43.412;24.612;2024-03-23T01:26:54;100233.34;;;3.69;68.96
11672;BME280;5892;43.412;24.612;2024-03-23T01:29:20;100235.63;;;3.75;67.99
11672;BME280;5892;43.412;24.612;2024-03-23T01:31:45;100228.72;;;3.75;67.60
11672;BME280;5892;43.412;24.612;2024-03-23T01:34:11;100240.63;;;3.78;68.01
11672;BME280;5892;43.412;24.612;2024-03-23T01:36:36;100235.75;;;3.72;67.71
11672;BME280;5892;43.412;24.612;2024-03-23T01:39:02;100230.69;;;3.70;67.43
11672;BME280;5892;43.412;24.612;2024-03-23T01:41:28;100238.19;;;3.75;66.71
11672;BME280;5892;43.412;24.612;2024-03-23T01:43:55;100229.53;;;3.76;67.34
11672;BME280;5892;43.412;24.612;2024-03-23T01:46:21;100236.75;;;3.87;67.12
11672;BME280;5892;43.412;24.612;2024-03-23T01:48:48;100222.44;;;3.81;66.26
11672;BME280;5892;43.412;24.612;2024-03-23T01:51:15;100220.19;;;3.75;67.20
11672;BME280;5892;43.412;24.612;2024-03-23T01:53:40;100219.59;;;3.70;67.43
11672;BME280;5892;43.412;24.612;2024-03-23T01:56:06;100223.06;;;3.69;67.88
11672;BME280;5892;43.412;24.612;2024-03-23T01:58:32;100217.69;;;3.56;66.90
11672;BME280;5892;43.412;24.612;2024-03-23T02:00:58;100228.78;;;3.56;66.79
11672;BME280;5892;43.412;24.612;2024-03-23T02:03:34;100219.19;;;3.60;67.77
11672;BME280;5892;43.412;24.612;2024-03-23T02:05:59;100215.34;;;3.51;67.13
11672;BME280;5892;43.412;24.612;2024-03-23T02:08:25;100210.94;;;3.36;68.69
11672;BME280;5892;43.412;24.612;2024-03-23T02:10:51;100208.59;;;3.31;68.84
11672;BME280;5892;43.412;24.612;2024-03-23T02:13:18;100210.72;;;3.40;68.43
11672;BME280;5892;43.412;24.612;2024-03-23T02:15:45;100215.78;;;3.42;68.74
11672;BME280;5892;43.412;24.612;2024-03-23T02:18:10;100208.44;;;3.34;67.93
11672;BME280;5892;43.412;24.612;2024-03-23T02:20:37;100216.38;;;3.30;68.20
11672;BME280;5892;43.412;24.612;2024-03-23T02:23:14;100212.81;;;3.32;68.65
11672;BME280;5892;43.412;24.612;2024-03-23T02:25:41;100212.00;;;3.32;67.84
11672;BME280;5892;43.412;24.612;2024-03-23T02:28:09;100212.53;;;3.21;68.75
11672;BME280;5892;43.412;24.612;2024-03-23T02:30:34;100215.31;;;3.16;68.20
11672;BME280;5892;43.412;24.612;2024-03-23T02:33:00;100211.09;;;3.15;67.90
11672;BME280;5892;43.412;24.612;2024-03-23T02:35:26;100206.56;;;3.20;67.74
11672;BME280;5892;43.412;24.612;2024-03-23T02:37:54;100209.03;;;3.22;68.93
11672;BME280;5892;43.412;24.612;2024-03-23T02:40:33;100203.38;;;3.15;69.31
11672;BME280;5892;43.412;24.612;2024-03-23T02:43:04;100201.31;;;3.22;67.77
11672;BME280;5892;43.412;24.612;2024-03-23T02:45:30;100208.59;;;3.14;68.18
11672;BME280;5892;43.412;24.612;2024-03-23T02:47:55;100196.69;;;3.11;68.59
11672;BME280;5892;43.412;24.612;2024-03-23T02:50:22;100203.28;;;3.17;68.60
11672;BME280;5892;43.412;24.612;2024-03-23T02:52:48;100202.59;;;3.13;69.21
11672;BME280;5892;43.412;24.612;2024-03-23T02:55:14;100197.09;;;3.04;67.86
11672;BME280;5892;43.412;24.612;2024-03-23T02:57:42;100205.75;;;3.01;68.63
11672;BME280;5892;43.412;24.612;2024-03-23T03:00:08;100195.34;;;3.04;68.07
11672;BME280;5892;43.412;24.612;2024-03-23T03:02:34;100200.34;;;3.07;67.90
11672;BME280;5892;43.412;24.612;2024-03-23T03:05:00;100197.16;;;3.02;68.01
11672;BME280;5892;43.412;24.612;2024-03-23T03:07:26;100203.34;;;2.98;68.19
11672;BME280;5892;43.412;24.612;2024-03-23T03:09:52;100196.13;;;2.87;68.57
11672;BME280;5892;43.412;24.612;2024-03-23T03:12:18;100177.63;;;2.80;69.78
11672;BME280;5892;43.412;24.612;2024-03-23T03:14:43;100194.53;;;2.85;68.42
11672;BME280;5892;43.412;24.612;2024-03-23T03:17:10;100189.91;;;2.74;69.52
11672;BME280;5892;43.412;24.612;2024-03-23T03:19:35;100189.94;;;2.91;68.01
11672;BME280;5892;43.412;24.612;2024-03-23T03:22:00;100197.09;;;2.85;68.06
11672;BME280;5892;43.412;24.612;2024-03-23T03:24:26;100196.13;;;2.87;67.90
11672;BME280;5892;43.412;24.612;2024-03-23T03:26:51;100201.94;;;2.91;67.79
11672;BME280;5892;43.412;24.612;2024-03-23T03:29:17;100190.97;;;2.87;69.48
11672;BME280;5892;43.412;24.612;2024-03-23T03:31:43;100188.81;;;2.97;67.62
11672;BME280;5892;43.412;24.612;2024-03-23T03:34:08;100188.75;;;2.98;67.70
11672;BME280;5892;43.412;24.612;2024-03-23T03:36:34;100185.56;;;2.93;68.31
11672;BME280;5892;43.412;24.612;2024-03-23T03:38:59;100174.28;;;2.78;67.98
11672;BME280;5892;43.412;24.612;2024-03-23T03:41:25;100193.41;;;2.90;67.67
11672;BME280;5892;43.412;24.612;2024-03-23T03:43:50;100181.78;;;2.83;68.89
11672;BME280;5892;43.412;24.612;2024-03-23T03:46:17;100184.88;;;2.90;69.10
11672;BME280;5892;43.412;24.612;2024-03-23T03:48:43;100177.19;;;2.90;67.79
11672;BME280;5892;43.412;24.612;2024-03-23T03:51:11;100190.91;;;2.89;67.53
11672;BME280;5892;43.412;24.612;2024-03-23T03:53:37;100188.84;;;2.78;69.23
11672;BME280;5892;43.412;24.612;2024-03-23T03:56:03;100185.53;;;2.76;69.38
11672;BME280;5892;43.412;24.612;2024-03-23T03:58:28;100183.22;;;2.70;69.37
11672;BME280;5892;43.412;24.612;2024-03-23T04:00:55;100169.31;;;2.75;68.09
11672;BME280;5892;43.412;24.612;2024-03-23T04:03:21;100178.78;;;2.73;69.38
11672;BME280;5892;43.412;24.612;2024-03-23T04:05:53;100177.75;;;2.77;68.92
11672;BME280;5892;43.412;24.612;2024-03-23T04:08:19;100184.72;;;2.75;68.86
11672;BME280;5892;43.412;24.612;2024-03-23T04:10:45;100190.16;;;2.87;67.45
11672;BME280;5892;43.412;24.612;2024-03-23T04:13:11;100181.00;;;2.81;68.45
11672;BME280;5892;43.412;24.612;2024-03-23T04:15:37;100180.31;;;2.77;68.90
11672;BME280;5892;43.412;24.612;2024-03-23T04:18:02;100184.84;;;2.72;69.34
11672;BME280;5892;43.412;24.612;2024-03-23T04:20:28;100181.16;;;2.78;69.16
11672;BME280;5892;43.412;24.612;2024-03-23T04:22:53;100182.22;;;2.74;68.37
11672;BME280;5892;43.412;24.612;2024-03-23T04:25:19;100180.66;;;2.70;69.02
11672;BME280;5892;43.412;24.612;2024-03-23T04:27:45;100184.91;;;2.71;68.93
11672;BME280;5892;43.412;24.612;2024-03-23T04:30:11;100186.63;;;2.89;68.84
11672;BME280;5892;43.412;24.612;2024-03-23T04:32:37;100187.03;;;3.16;68.53
11672;BME280;5892;43.412;24.612;2024-03-23T04:35:04;100182.53;;;3.39;67.85
11672;BME280;5892;43.412;24.612;2024-03-23T04:37:37;100184.63;;;3.66;66.81
11672;BME280;5892;43.412;24.612;2024-03-23T04:40:04;100183.41;;;3.90;65.58
11672;BME280;5892;43.412;24.612;2024-03-23T04:42:33;100181.47;;;4.11;63.52
11672;BME280;5892;43.412;24.612;2024-03-23T04:44:58;100186.47;;;4.14;64.59
11672;BME280;5892;43.412;24.612;2024-03-23T04:47:24;100176.50;;;4.24;63.76
11672;BME280;5892;43.412;24.612;2024-03-23T04:49:49;100189.59;;;4.53;62.63
11672;BME280;5892;43.412;24.612;2024-03-23T04:52:16;100185.50;;;4.97;62.07
11672;BME280;5892;43.412;24.612;2024-03-23T04:54:41;100178.44;;;5.31;59.69
11672;BME280;5892;43.412;24.612;2024-03-23T04:57:07;100189.97;;;5.70;58.91
11672;BME280;5892;43.412;24.612;2024-03-23T04:59:33;100183.63;;;5.90;58.05
11672;BME280;5892;43.412;24.612;2024-03-23T05:01:59;100180.75;;;6.10;56.70
11672;BME280;5892;43.412;24.612;2024-03-23T05:04:26;100187.06;;;6.33;56.41
11672;BME280;5892;43.412;24.612;2024-03-23T05:06:53;100162.84;;;6.07;55.73
11672;BME280;5892;43.412;24.612;2024-03-23T05:09:19;100176.31;;;6.41;56.64
11672;BME280;5892;43.412;24.612;2024-03-23T05:11:45;100164.03;;;6.72;55.15
11672;BME280;5892;43.412;24.612;2024-03-23T05:14:13;100169.81;;;6.90;54.61
11672;BME280;5892;43.412;24.612;2024-03-23T05:16:38;100166.44;;;7.02;52.58
11672;BME280;5892;43.412;24.612;2024-03-23T05:19:04;100172.91;;;7.22;52.64
11672;BME280;5892;43.412;24.612;2024-03-23T05:21:29;100166.84;;;7.36;52.53
11672;BME280;5892;43.412;24.612;2024-03-23T05:23:55;100164.97;;;7.38;52.71
11672;BME280;5892;43.412;24.612;2024-03-23T05:26:22;100158.88;;;7.39;52.47
11672;BME280;5892;43.412;24.612;2024-03-23T05:28:48;100159.16;;;7.34;53.85
11672;BME280;5892;43.412;24.612;2024-03-23T05:31:27;100169.38;;;7.89;52.38
11672;BME280;5892;43.412;24.612;2024-03-23T05:33:53;100167.91;;;8.10;51.52
11672;BME280;5892;43.412;24.612;2024-03-23T05:36:20;100175.63;;;8.36;51.24
11672;BME280;5892;43.412;24.612;2024-03-23T05:38:45;100165.88;;;8.40;50.52
11672;BME280;5892;43.412;24.612;2024-03-23T05:41:12;100184.50;;;8.58;50.72
11672;BME280;5892;43.412;24.612;2024-03-23T05:43:38;100172.28;;;8.60;50.40
11672;BME280;5892;43.412;24.612;2024-03-23T05:46:04;100168.19;;;8.81;50.05
11672;BME280;5892;43.412;24.612;2024-03-23T05:48:33;100171.16;;;8.64;50.20
11672;BME280;5892;43.412;24.612;2024-03-23T05:50:59;100167.31;;;9.05;49.09
11672;BME280;5892;43.412;24.612;2024-03-23T05:53:25;100168.06;;;9.42;48.17
11672;BME280;5892;43.412;24.612;2024-03-23T05:55:51;100163.59;;;9.56;47.90
11672;BME280;5892;43.412;24.612;2024-03-23T05:58:19;100160.56;;;9.62;47.08
11672;BME280;5892;43.412;24.612;2024-03-23T06:00:48;100164.81;;;9.86;47.85
11672;BME280;5892;43.412;24.612;2024-03-23T06:03:13;100158.25;;;9.93;47.44
11672;BME280;5892;43.412;24.612;2024-03-23T06:05:40;100160.09;;;10.13;46.80
11672;BME280;5892;43.412;24.612;2024-03-23T06:08:05;100153.13;;;10.59;45.41
11672;BME280;5892;43.412;24.612;2024-03-23T06:10:32;100148.44;;;10.85;44.88
11672;BME280;5892;43.412;24.612;2024-03-23T06:12:58;100154.06;;;11.02;44.27
11672;BME280;5892;43.412;24.612;2024-03-23T06:15:24;100150.13;;;11.28;44.06
11672;BME280;5892;43.412;24.612;2024-03-23T06:17:52;100144.22;;;11.26;43.97
11672;BME280;5892;43.412;24.612;2024-03-23T06:20:18;100149.25;;;11.18;44.18
11672;BME280;5892;43.412;24.612;2024-03-23T06:22:44;100140.44;;;11.51;42.99
11672;BME280;5892;43.412;24.612;2024-03-23T06:25:10;100140.47;;;11.61;43.26
11672;BME280;5892;43.412;24.612;2024-03-23T06:27:37;100132.72;;;11.92;42.36
11672;BME280;5892;43.412;24.612;2024-03-23T06:30:05;100139.53;;;12.24;41.47
11672;BME280;5892;43.412;24.612;2024-03-23T06:32:32;100138.81;;;12.62;40.90
11672;BME280;5892;43.412;24.612;2024-03-23T06:34:57;100140.16;;;12.47;41.02
11672;BME280;5892;43.412;24.612;2024-03-23T06:37:23;100146.38;;;12.56;41.02
11672;BME280;5892;43.412;24.612;2024-03-23T06:39:48;100129.06;;;12.55;40.98
11672;BME280;5892;43.412;24.612;2024-03-23T06:42:13;100144.66;;;12.35;42.19
11672;BME280;5892;43.412;24.612;2024-03-23T06:44:39;100142.22;;;12.43;41.65
11672;BME280;5892;43.412;24.612;2024-03-23T06:47:05;100130.09;;;12.33;41.56
11672;BME280;5892;43.412;24.612;2024-03-23T06:49:31;100132.00;;;12.21;42.78
11672;BME280;5892;43.412;24.612;2024-03-23T06:51:56;100135.81;;;12.07;42.95
11672;BME280;5892;43.412;24.612;2024-03-23T06:54:22;100131.53;;;12.06;42.83
11672;BME280;5892;43.412;24.612;2024-03-23T06:56:47;100131.19;;;11.89;43.94
11672;BME280;5892;43.412;24.612;2024-03-23T06:59:12;100127.84;;;11.78;45.14
11672;BME280;5892;43.412;24.612;2024-03-23T07:01:38;100131.84;;;11.61;44.96
11672;BME280;5892;43.412;24.612;2024-03-23T07:04:04;100123.69;;;11.44;46.44
11672;BME280;5892;43.412;24.612;2024-03-23T07:06:31;100136.09;;;11.83;46.09
11672;BME280;5892;43.412;24.612;2024-03-23T07:08:56;100128.31;;;11.93;45.54
11672;BME280;5892;43.412;24.612;2024-03-23T07:11:22;100127.72;;;12.10;44.89
11672;BME280;5892;43.412;24.612;2024-03-23T07:13:52;100130.66;;;12.26;43.92
11672;BME280;5892;43.412;24.612;2024-03-23T07:16:19;100126.66;;;12.22;44.58
11672;BME280;5892;43.412;24.612;2024-03-23T07:18:45;100127.75;;;12.20;43.96
11672;BME280;5892;43.412;24.612;2024-03-23T07:21:11;100123.56;;;12.48;43.31
11672;BME280;5892;43.412;24.612;2024-03-23T07:23:36;100125.09;;;12.70;43.55
11672;BME280;5892;43.412;24.612;2024-03-23T07:26:04;100125.38;;;12.77;43.29
11672;BME280;5892;43.412;24.612;2024-03-23T07:28:31;100122.22;;;13.02;43.25
11672;BME280;5892;43.412;24.612;2024-03-23T07:31:05;100124.16;;;13.10;42.25
11672;BME280;5892;43.412;24.612;2024-03-23T07:33:31;100127.84;;;13.08;42.34
11672;BME280;5892;43.412;24.612;2024-03-23T07:35:56;100128.28;;;13.32;41.43
11672;BME280;5892;43.412;24.612;2024-03-23T07:38:23;100126.97;;;13.46;42.01
11672;BME280;5892;43.412;24.612;2024-03-23T07:40:48;100131.25;;;13.57;40.45
11672;BME280;5892;43.412;24.612;2024-03-23T07:43:21;100119.28;;;13.54;40.37
11672;BME280;5892;43.412;24.612;2024-03-23T07:45:54;100117.19;;;13.58;40.47
11672;BME280;5892;43.412;24.612;2024-03-23T07:48:22;100115.91;;;13.82;40.85
11672;BME280;5892;43.412;24.612;2024-03-23T07:51:05;100114.44;;;13.69;40.29
11672;BME280;5892;43.412;24.612;2024-03-23T07:53:31;100112.81;;;13.96;40.35
11672;BME280;5892;43.412;24.612;2024-03-23T07:55:59;100112.41;;;13.91;40.31
11672;BME280;5892;43.412;24.612;2024-03-23T07:58:25;100113.09;;;14.21;40.15
11672;BME280;5892;43.412;24.612;2024-03-23T08:00:53;100108.38;;;14.06;40.43
11672;BME280;5892;43.412;24.612;2024-03-23T08:03:18;100110.06;;;14.43;39.47
11672;BME280;5892;43.412;24.612;2024-03-23T08:05:44;100106.78;;;14.41;40.29
11672;BME280;5892;43.412;24.612;2024-03-23T08:08:11;100105.81;;;14.42;39.83
11672;BME280;5892;43.412;24.612;2024-03-23T08:10:57;100111.66;;;14.54;38.87
11672;BME280;5892;43.412;24.612;2024-03-23T08:13:22;100107.53;;;14.61;39.02
11672;BME280;5892;43.412;24.612;2024-03-23T08:15:47;100107.22;;;14.82;38.69
11672;BME280;5892;43.412;24.612;2024-03-23T08:18:13;100101.75;;;14.94;37.76
11672;BME280;5892;43.412;24.612;2024-03-23T08:20:41;100102.63;;;15.02;38.37
11672;BME280;5892;43.412;24.612;2024-03-23T08:23:07;100094.41;;;14.97;39.05
11672;BME280;5892;43.412;24.612;2024-03-23T08:25:33;100091.63;;;14.99;40.42
11672;BME280;5892;43.412;24.612;2024-03-23T08:28:01;100096.44;;;15.03;40.25
11672;BME280;5892;43.412;24.612;2024-03-23T08:30:28;100095.53;;;15.39;39.18
11672;BME280;5892;43.412;24.612;2024-03-23T08:32:55;100089.63;;;15.37;37.78
11672;BME280;5892;43.412;24.612;2024-03-23T08:35:20;100081.75;;;15.37;38.06
11672;BME280;5892;43.412;24.612;2024-03-23T08:37:45;100080.59;;;15.31;38.30
11672;BME280;5892;43.412;24.612;2024-03-23T08:40:12;100088.78;;;15.62;38.40
11672;BME280;5892;43.412;24.612;2024-03-23T08:42:37;100085.31;;;15.80;37.72
11672;BME280;5892;43.412;24.612;2024-03-23T08:45:03;100087.50;;;15.67;36.73
11672;BME280;5892;43.412;24.612;2024-03-23T08:47:28;100086.78;;;15.82;36.83
11672;BME280;5892;43.412;24.612;2024-03-23T08:49:55;100072.34;;;15.78;36.42
11672;BME280;5892;43.412;24.612;2024-03-23T08:52:20;100070.44;;;15.89;36.26
11672;BME280;5892;43.412;24.612;2024-03-23T08:54:48;100069.84;;;16.11;34.24
11672;BME280;5892;43.412;24.612;2024-03-23T08:57:13;100059.84;;;16.23;32.26
11672;BME280;5892;43.412;24.612;2024-03-23T08:59:39;100054.66;;;16.39;31.54
11672;BME280;5892;43.412;24.612;2024-03-23T09:02:05;100053.69;;;16.73;30.32
11672;BME280;5892;43.412;24.612;2024-03-23T09:04:30;100053.72;;;16.98;29.95
11672;BME280;5892;43.412;24.612;2024-03-23T09:06:56;100047.00;;;17.04;29.81
11672;BME280;5892;43.412;24.612;2024-03-23T09:09:24;100045.50;;;17.01;29.98
11672;BME280;5892;43.412;24.612;2024-03-23T09:11:49;100029.38;;;17.21;29.47
11672;BME280;5892;43.412;24.612;2024-03-23T09:14:15;100035.72;;;17.51;28.95
11672;BME280;5892;43.412;24.612;2024-03-23T09:16:40;100032.00;;;17.77;26.30
11672;BME280;5892;43.412;24.612;2024-03-23T09:19:06;100035.75;;;17.90;25.42
11672;BME280;5892;43.412;24.612;2024-03-23T09:21:31;100026.38;;;18.19;24.38
11672;BME280;5892;43.412;24.612;2024-03-23T09:23:57;100013.34;;;18.26;25.47
11672;BME280;5892;43.412;24.612;2024-03-23T09:26:22;100018.88;;;18.08;25.37
11672;BME280;5892;43.412;24.612;2024-03-23T09:28:51;100015.38;;;18.39;24.52
11672;BME280;5892;43.412;24.612;2024-03-23T09:31:17;100020.81;;;18.60;24.23
11672;BME280;5892;43.412;24.612;2024-03-23T09:33:42;100007.66;;;18.37;24.18
11672;BME280;5892;43.412;24.612;2024-03-23T09:36:09;100000.25;;;18.41;24.35
11672;BME280;5892;43.412;24.612;2024-03-23T09:38:35;100009.13;;;18.40;23.76
11672;BME280;5892;43.412;24.612;2024-03-23T09:41:07;100001.53;;;18.45;23.72
11672;BME280;5892;43.412;24.612;2024-03-23T09:43:33;99994.50;;;18.37;24.15
11672;BME280;5892;43.412;24.612;2024-03-23T09:45:59;99985.91;;;18.43;23.26
11672;BME280;5892;43.412;24.612;2024-03-23T09:48:24;99984.25;;;18.65;23.23
11672;BME280;5892;43.412;24.612;2024-03-23T09:50:50;99983.06;;;18.68;23.88
11672;BME280;5892;43.412;24.612;2024-03-23T09:53:15;99984.56;;;18.86;23.80
11672;BME280;5892;43.412;24.612;2024-03-23T09:55:43;99986.50;;;19.07;23.43
11672;BME280;5892;43.412;24.612;2024-03-23T09:58:12;99971.59;;;19.14;22.93
11672;BME280;5892;43.412;24.612;2024-03-23T10:00:38;99982.41;;;19.19;22.30
11672;BME280;5892;43.412;24.612;2024-03-23T10:03:04;99966.06;;;18.94;23.27
11672;BME280;5892;43.412;24.612;2024-03-23T10:05:32;99969.63;;;19.16;22.58
11672;BME280;5892;43.412;24.612;2024-03-23T10:08:00;99968.69;;;19.38;22.55
11672;BME280;5892;43.412;24.612;2024-03-23T10:10:26;99967.84;;;19.53;22.93
11672;BME280;5892;43.412;24.612;2024-03-23T10:12:51;99970.44;;;19.68;22.89
11672;BME280;5892;43.412;24.612;2024-03-23T10:15:24;99951.19;;;19.67;22.20
11672;BME280;5892;43.412;24.612;2024-03-23T10:17:51;99951.47;;;19.57;22.57
11672;BME280;5892;43.412;24.612;2024-03-23T10:20:21;99946.78;;;19.38;23.49
11672;BME280;5892;43.412;24.612;2024-03-23T10:22:51;99944.06;;;19.31;22.74
11672;BME280;5892;43.412;24.612;2024-03-23T10:25:24;99941.34;;;19.10;22.86
11672;BME280;5892;43.412;24.612;2024-03-23T10:27:59;99946.91;;;19.15;23.38
11672;BME280;5892;43.412;24.612;2024-03-23T10:30:26;99942.34;;;19.09;23.03
11672;BME280;5892;43.412;24.612;2024-03-23T10:33:10;99935.78;;;19.34;22.86
11672;BME280;5892;43.412;24.612;2024-03-23T10:35:37;99917.38;;;19.05;22.74
11672;BME280;5892;43.412;24.612;2024-03-23T10:38:06;99920.06;;;19.41;23.00
11672;BME280;5892;43.412;24.612;2024-03-23T10:40:36;99922.34;;;19.44;23.19
11672;BME280;5892;43.412;24.612;2024-03-23T10:43:03;99906.78;;;19.49;22.90
11672;BME280;5892;43.412;24.612;2024-03-23T10:45:29;99894.03;;;19.53;22.77
11672;BME280;5892;43.412;24.612;2024-03-23T10:47:57;99904.97;;;19.35;23.02
11672;BME280;5892;43.412;24.612;2024-03-23T10:50:23;99898.63;;;19.44;23.08
11672;BME280;5892;43.412;24.612;2024-03-23T10:52:49;99900.81;;;19.62;22.70
11672;BME280;5892;43.412;24.612;2024-03-23T10:55:19;99879.63;;;19.34;22.50
11672;BME280;5892;43.412;24.612;2024-03-23T10:57:54;99886.16;;;19.38;22.62
11672;BME280;5892;43.412;24.612;2024-03-23T11:00:21;99880.78;;;19.46;22.72
11672;BME280;5892;43.412;24.612;2024-03-23T11:02:48;99880.22;;;18.99;23.46
11672;BME280;5892;43.412;24.612;2024-03-23T11:07:52;99867.59;;;19.10;23.14
11672;BME280;5892;43.412;24.612;2024-03-23T11:10:36;99852.66;;;19.32;23.02
11672;BME280;5892;43.412;24.612;2024-03-23T11:13:21;99851.19;;;19.44;22.84
11672;BME280;5892;43.412;24.612;2024-03-23T11:15:47;99847.22;;;19.55;23.28
11672;BME280;5892;43.412;24.612;2024-03-23T11:18:20;99845.56;;;19.54;23.48
11672;BME280;5892;43.412;24.612;2024-03-23T11:20:46;99838.53;;;19.76;22.95
11672;BME280;5892;43.412;24.612;2024-03-23T11:23:32;99830.88;;;19.66;21.96
11672;BME280;5892;43.412;24.612;2024-03-23T11:25:57;99827.78;;;19.56;22.36
11672;BME280;5892;43.412;24.612;2024-03-23T11:28:23;99821.38;;;19.65;22.56
11672;BME280;5892;43.412;24.612;2024-03-23T11:30:48;99819.69;;;19.79;22.46
11672;BME280;5892;43.412;24.612;2024-03-23T11:33:14;99813.25;;;19.45;22.46
11672;BME280;5892;43.412;24.612;2024-03-23T11:35:41;99803.56;;;19.46;22.19
11672;BME280;5892;43.412;24.612;2024-03-23T11:38:14;99812.19;;;19.39;22.51
11672;BME280;5892;43.412;24.612;2024-03-23T11:40:44;99798.53;;;19.51;22.39
11672;BME280;5892;43.412;24.612;2024-03-23T11:43:16;99797.28;;;19.68;21.90
11672;BME280;5892;43.412;24.612;2024-03-23T11:45:46;99788.72;;;19.66;22.11
11672;BME280;5892;43.412;24.612;2024-03-23T11:48:16;99785.34;;;19.51;21.48
11672;BME280;5892;43.412;24.612;2024-03-23T11:50:46;99788.66;;;19.81;20.84
11672;BME280;5892;43.412;24.612;2024-03-23T11:58:13;99775.66;;;20.01;20.72
11672;BME280;5892;43.412;24.612;2024-03-23T12:00:39;99769.00;;;20.12;20.94
11672;BME280;5892;43.412;24.612;2024-03-23T12:03:06;99752.63;;;19.88;20.57
11672;BME280;5892;43.412;24.612;2024-03-23T12:05:33;99754.84;;;19.63;20.95
11672;BME280;5892;43.412;24.612;2024-03-23T12:11:05;99741.34;;;19.51;21.43
11672;BME280;5892;43.412;24.612;2024-03-23T12:13:31;99737.69;;;19.52;21.35
11672;BME280;5892;43.412;24.612;2024-03-23T12:18:34;99734.69;;;19.55;21.87
11672;BME280;5892;43.412;24.612;2024-03-23T12:21:00;99724.16;;;19.77;21.07
11672;BME280;5892;43.412;24.612;2024-03-23T12:23:25;99728.06;;;19.88;21.08
11672;BME280;5892;43.412;24.612;2024-03-23T12:25:50;99724.75;;;20.07;20.60
11672;BME280;5892;43.412;24.612;2024-03-23T12:28:16;99714.09;;;19.94;20.46
11672;BME280;5892;43.412;24.612;2024-03-23T12:30:42;99717.84;;;19.78;21.27
11672;BME280;5892;43.412;24.612;2024-03-23T12:33:07;99711.38;;;19.59;21.69
11672;BME280;5892;43.412;24.612;2024-03-23T12:35:33;99706.19;;;19.66;21.54
11672;BME280;5892;43.412;24.612;2024-03-23T12:37:59;99701.53;;;19.68;20.64
11672;BME280;5892;43.412;24.612;2024-03-23T12:40:24;99701.28;;;19.63;21.21
11672;BME280;5892;43.412;24.612;2024-03-23T12:42:50;99689.59;;;19.72;21.52
11672;BME280;5892;43.412;24.612;2024-03-23T12:45:15;99680.13;;;19.77;20.90
11672;BME280;5892;43.412;24.612;2024-03-23T12:47:41;99693.03;;;20.01;20.78
11672;BME280;5892;43.412;24.612;2024-03-23T12:50:07;99693.13;;;20.14;21.25
11672;BME280;5892;43.412;24.612;2024-03-23T12:52:33;99687.84;;;20.14;21.17
11672;BME280;5892;43.412;24.612;2024-03-23T12:54:58;99681.09;;;20.05;20.38
11672;BME280;5892;43.412;24.612;2024-03-23T12:57:25;99677.59;;;19.91;20.92
11672;BME280;5892;43.412;24.612;2024-03-23T12:59:52;99674.75;;;19.92;20.81
11672;BME280;5892;43.412;24.612;2024-03-23T13:02:22;99675.41;;;19.73;20.98
11672;BME280;5892;43.412;24.612;2024-03-23T13:04:54;99671.00;;;19.80;21.80
11672;BME280;5892;43.412;24.612;2024-03-23T13:07:20;99663.75;;;19.82;20.31
11672;BME280;5892;43.412;24.612;2024-03-23T13:09:51;99663.63;;;19.69;20.97
11672;BME280;5892;43.412;24.612;2024-03-23T13:12:22;99653.00;;;19.90;20.67
11672;BME280;5892;43.412;24.612;2024-03-23T13:14:47;99660.06;;;19.83;20.37
11672;BME280;5892;43.412;24.612;2024-03-23T13:17:13;99653.63;;;19.64;21.10
11672;BME280;5892;43.412;24.612;2024-03-23T13:19:39;99645.03;;;19.77;20.94
11672;BME280;5892;43.412;24.612;2024-03-23T13:22:04;99642.25;;;19.57;21.57
11672;BME280;5892;43.412;24.612;2024-03-23T13:24:30;99640.16;;;19.52;21.43
11672;BME280;5892;43.412;24.612;2024-03-23T13:26:57;99644.41;;;19.47;21.66
11672;BME280;5892;43.412;24.612;2024-03-23T13:29:23;99637.78;;;19.29;21.55
11672;BME280;5892;43.412;24.612;2024-03-23T13:31:54;99627.63;;;19.26;21.94
11672;BME280;5892;43.412;24.612;2024-03-23T13:34:21;99629.00;;;19.22;22.35
11672;BME280;5892;43.412;24.612;2024-03-23T13:36:47;99624.47;;;19.09;22.44
11672;BME280;5892;43.412;24.612;2024-03-23T13:39:14;99618.13;;;19.03;23.11
11672;BME280;5892;43.412;24.612;2024-03-23T13:41:44;99621.44;;;19.12;23.02
11672;BME280;5892;43.412;24.612;2024-03-23T13:44:11;99615.59;;;19.17;23.11
11672;BME280;5892;43.412;24.612;2024-03-23T13:46:41;99613.31;;;19.07;22.70
11672;BME280;5892;43.412;24.612;2024-03-23T13:51:48;99598.13;;;19.09;22.13
11672;BME280;5892;43.412;24.612;2024-03-23T13:54:13;99607.56;;;19.25;22.57
11672;BME280;5892;43.412;24.612;2024-03-23T13:56:39;99600.09;;;19.29;22.22
11672;BME280;5892;43.412;24.612;2024-03-23T13:59:05;99603.41;;;19.37;22.30
11672;BME280;5892;43.412;24.612;2024-03-23T14:01:30;99597.75;;;19.40;22.63
11672;BME280;5892;43.412;24.612;2024-03-23T14:03:58;99587.53;;;19.31;22.07
11672;BME280;5892;43.412;24.612;2024-03-23T14:06:28;99599.09;;;19.30;22.41